Pacaembu, Brazil
Current Conditions -  °F | °C
As of 6:00 PM on Saturday 25 Oct 2014 (Local Time) from SBDN Reporting Station
Light Rain Light Rain  
Wind Chill: 72°   Ceiling: Unl
Heat Index: 72°   Visibility: 6mi
Dew Point: 64°   Wind: 8mph
Humidity: 78%   Direction: 30°NNE
Pressure: 29.91"   Gusts: NA
Location:  21.56°S, 51.26°W
Report Text: SBDN 252000Z 03007KT 9999 -RA FEW012 22/18 Q1013
Loading
Personal Weather Stations






























Interactive Weather Map
Tropical Storm Tracking
New forecast layout! Learn more

10-Day Weather Forecast

Advertisements
Track Severe Weather on mobile